Latest Weather Observations for Mt Wellington

IDT60901

Issued at 1:25 am EST Friday 1 August 2014 (issued every 10 minutes, with the page automatically refreshed every 10 minutes)

About weather observations | Map of Hobart area stations | Latest observations for Hobart area | Other Formats
Station Details ID: 094087 Name: MOUNT WELLINGTON Lat: -42.90 Lon: 147.24 Height: 1260.47 m
Data from the previous 72 hours. | See also: Recent months at Mt Wellington
Date/Time
EST
Tmp

°C
App
Tmp
°C
Dew
Point
°C
Rel
Hum
%
Delta-T

°C
Wind Press
QNH
hPa
Press
MSL
hPa
Rain
since
9 am
mm
Dir
 
Spd
km/h
Gust
km/h
Spd
kts
Gust
kts
01/01:00am -4.1 -14.1 -4.8 95 0.1 WNW 39 57 21 31 - - 1.0
01/12:30am -3.9 -13.1 -4.6 95 0.1 WNW 35 48 19 26 - - 1.0
01/12:13am -3.8 -13.8 -4.5 95 0.1 WNW 39 59 21 32 - - 1.0
01/12:00am -3.7 -13.7 -4.4 95 0.1 WNW 39 50 21 27 - - 1.0
 
Date/Time
EST
Tmp

°C
App
Tmp
°C
Dew
Point
°C
Rel
Hum
%
Delta-T

°C
Wind Press
QNH
hPa
Press
MSL
hPa
Rain
since
9 am
mm
Dir
 
Spd
km/h
Gust
km/h
Spd
kts
Gust
kts
31/11:30pm -3.6 -13.5 -4.3 95 0.1 NW 39 48 21 26 - - 1.0
31/11:00pm -3.5 -13.8 -4.2 95 0.1 NW 41 52 22 28 - - 1.0
31/10:43pm -3.4 -13.7 -4.1 95 0.1 WNW 41 61 22 33 - - 1.0
31/10:30pm -3.3 -13.9 -3.8 96 0.0 NW 43 54 23 29 - - 1.0
31/10:01pm -3.6 -14.3 -4.1 96 0.0 NW 43 63 23 34 - - 1.0
31/10:00pm -3.5 -14.2 -4.0 96 0.0 WNW 43 52 23 28 - - 1.0
31/09:49pm -3.2 -12.7 -3.7 96 0.0 WNW 37 61 20 33 - - 1.0
31/09:30pm -3.0 -11.1 -3.5 96 0.0 W 30 44 16 24 - - 1.0
31/09:00pm -3.0 -11.7 -3.5 96 0.0 NW 33 43 18 23 - - 1.0
31/08:30pm -3.0 -14.2 -3.5 96 0.0 NW 46 59 25 32 - - 1.0
31/08:00pm -2.7 -14.2 -3.2 96 0.1 NW 48 67 26 36 - - 1.0
31/07:30pm -2.7 -14.6 -3.2 96 0.1 NW 50 69 27 37 - - 1.0
31/07:00pm -2.6 -13.2 -3.1 96 0.1 NW 43 56 23 30 - - 1.0
31/06:55pm -2.5 -11.5 -3.0 96 0.1 NW 35 56 19 30 - - 1.0
31/06:30pm -2.3 -13.0 -2.7 97 0.0 NW 44 59 24 32 - - 1.0
31/06:00pm -1.9 -12.9 -2.3 97 0.1 NW 46 65 25 35 - - 1.0
31/05:31pm -1.6 -13.7 -2.0 97 0.1 NNW 52 76 28 41 - - 1.0
31/05:30pm -1.6 -13.7 -2.0 97 0.1 NNW 52 70 28 38 - - 1.0
31/05:00pm -1.6 -13.4 -2.0 97 0.1 NNW 50 70 27 38 - - 1.0
31/04:54pm -1.5 -13.6 -1.9 97 0.1 NNW 52 70 28 38 - - 1.0
31/04:30pm -1.7 -13.9 -2.1 97 0.1 NW 52 67 28 36 - - 1.0
31/04:00pm -1.5 -15.0 -1.9 97 0.1 WNW 59 74 32 40 - - 1.0
31/03:35pm -1.3 -13.0 -1.6 98 0.0 NW 50 69 27 37 - - 1.0
31/03:30pm -1.2 -12.5 -1.5 98 0.1 NW 48 61 26 33 - - 1.0
31/03:00pm -0.7 -11.6 -1.0 98 0.1 W 46 65 25 35 - - 0.8
31/02:36pm -0.6 -11.1 -0.9 98 0.1 W 44 63 24 34 - - 0.2
31/02:30pm -0.5 -12.1 -0.8 98 0.1 W 50 63 27 34 - - 0.2
31/02:16pm -0.5 -11.0 -0.8 98 0.1 WNW 44 59 24 32 - - 0.2
31/02:00pm -1.1 -7.5 -1.4 98 0.1 WNW 22 37 12 20 - - 0.2
31/01:30pm -1.4 -7.8 -1.7 98 0.0 WNW 22 28 12 15 - - 0.2
31/01:00pm -0.7 -8.1 -1.0 98 0.1 NW 28 37 15 20 - - 0.2
31/12:30pm -0.6 -9.7 -0.9 98 0.1 NW 37 48 20 26 - - 0.2
31/12:00pm -0.8 -8.6 -1.1 98 0.1 NNW 30 39 16 21 - - 0.2
31/11:30am -0.5 -8.7 -0.8 98 0.1 NNW 32 44 17 24 - - 0.2
31/11:00am -0.5 -10.0 -0.8 98 0.1 NNW 39 46 21 25 - - 0.2
31/10:30am -0.6 -11.8 -0.9 98 0.1 NNW 48 61 26 33 - - 0.2
31/10:00am -0.5 -10.4 -0.8 98 0.1 NNW 41 46 22 25 - - 0.2
31/09:30am -0.4 -9.9 -0.7 98 0.1 NW 39 50 21 27 - - 0.2
31/09:00am -0.1 -9.2 -0.4 98 0.1 WNW 37 44 20 24 - - 25.6
31/08:30am -0.5 -10.0 -0.8 98 0.1 WNW 39 50 21 27 - - 25.6
31/08:00am -0.5 -9.6 -0.8 98 0.1 W 37 52 20 28 - - 25.4
31/07:47am -0.5 -10.8 -0.8 98 0.1 W 43 63 23 34 - - 25.4
31/07:30am -0.5 -11.0 -0.8 98 0.1 W 44 54 24 29 - - 25.4
31/07:00am -0.2 -10.6 -0.5 98 0.1 WNW 44 57 24 31 - - 25.4
31/06:30am -0.3 -12.6 -0.6 98 0.1 W 54 74 29 40 - - 25.4
31/06:22am -0.2 -12.1 -0.5 98 0.1 W 52 72 28 39 - - 25.4
31/06:12am -0.1 -11.3 -0.4 98 0.1 WNW 48 57 26 31 - - 25.2
31/06:00am -0.3 -9.0 -0.6 98 0.1 W 35 46 19 25 - - 25.2
31/05:55am 0.0 -8.3 -0.3 98 0.1 W 33 43 18 23 - - 25.2
31/05:30am 0.1 -9.3 -0.2 98 0.1 WNW 39 56 21 30 - - 25.2
31/05:21am 0.0 -9.1 -0.3 98 0.1 WNW 37 56 20 30 - - 25.2
31/05:00am -0.5 -8.7 -0.8 98 0.1 W 32 41 17 22 - - 25.2
31/04:53am -0.5 -8.9 -0.8 98 0.1 W 33 41 18 22 - - 25.2
31/04:30am -0.4 -10.3 -0.7 98 0.1 SW 41 52 22 28 - - 25.2
31/04:20am 0.0 -10.8 -0.3 98 0.1 SW 46 52 25 28 - - 25.2
31/04:00am 1.6 -6.2 1.5 99 0.0 WNW 32 46 17 25 - - 24.0
31/03:30am 2.0 -7.1 1.9 99 0.0 NW 39 48 21 26 - - 22.0
31/03:29am 2.0 -6.7 1.9 99 0.0 NW 37 44 20 24 - - 22.0
31/03:00am 1.9 -10.7 1.6 98 0.1 WNW 57 80 31 43 - - 21.8
31/02:30am 1.9 -12.2 1.8 99 0.0 W 65 85 35 46 - - 21.4
31/02:29am 1.8 -12.6 1.7 99 0.0 W 67 85 36 46 - - 21.4
31/02:17am 2.2 -7.8 2.1 99 0.0 W 44 67 24 36 - - 20.6
31/02:16am 2.2 -7.6 2.1 99 0.0 W 43 48 23 26 - - 20.4
31/02:02am 3.0 -9.7 2.9 99 0.0 NW 59 104 32 56 - - 19.0
31/02:00am 3.0 -9.3 2.9 99 0.0 NW 57 76 31 41 - - 18.8
31/01:44am 3.0 -9.7 2.9 99 0.0 NW 59 82 32 44 - - 18.0
31/01:30am 2.7 -14.1 2.6 99 0.0 WNW 80 111 43 60 - - 17.8
31/01:14am 2.6 -14.2 2.5 99 0.0 NW 80 122 43 66 - - 17.2
31/01:00am 2.8 -13.2 2.7 99 0.0 NW 76 96 41 52 - - 17.0
31/12:30am 2.6 -11.3 2.5 99 0.0 NW 65 93 35 50 - - 16.8
31/12:00am 2.5 -11.5 2.4 99 0.0 NNW 65 87 35 47 - - 16.6
 
Date/Time
EST
Tmp

°C
App
Tmp
°C
Dew
Point
°C
Rel
Hum
%
Delta-T

°C
Wind Press
QNH
hPa
Press
MSL
hPa
Rain
since
9 am
mm
Dir
 
Spd
km/h
Gust
km/h
Spd
kts
Gust
kts
30/11:30pm 2.6 -12.3 2.5 99 0.0 NW 70 100 38 54 - - 15.8
30/11:00pm 2.4 -11.2 2.3 99 0.0 NW 63 93 34 50 - - 15.8
30/10:55pm 2.4 -10.4 2.3 99 0.0 NW 59 89 32 48 - - 15.6
30/10:54pm 2.4 -9.5 2.3 99 0.0 NW 54 72 29 39 - - 15.6
30/10:30pm 2.5 -14.3 2.4 99 0.0 NW 80 100 43 54 - - 15.6
30/10:00pm 2.4 -12.5 2.3 99 0.0 NW 70 98 38 53 - - 15.6
30/09:30pm 2.6 -14.8 2.5 99 0.0 NW 83 109 45 59 - - 15.4
30/09:00pm 2.8 -12.4 2.7 99 0.0 NW 72 96 39 52 - - 15.2
30/08:30pm 2.9 -12.7 2.8 99 0.0 NNW 74 98 40 53 - - 14.4
30/08:24pm 2.9 -11.7 2.8 99 0.0 NW 69 98 37 53 - - 14.2
30/08:00pm 2.7 -10.1 2.6 99 0.0 NW 59 80 32 43 - - 13.0
30/07:31pm 2.3 -9.6 2.2 99 0.0 NW 54 76 29 41 - - 12.6
30/07:30pm 2.3 -9.6 2.2 99 0.0 NW 54 72 29 39 - - 12.4
30/07:00pm 2.2 -9.7 2.1 99 0.0 NW 54 72 29 39 - - 12.2
30/06:30pm 2.4 -10.1 2.3 99 0.0 WNW 57 85 31 46 - - 11.8
30/06:04pm 2.5 -11.8 2.4 99 0.0 WNW 67 87 36 47 - - 11.8
30/06:00pm 2.7 -12.9 2.6 99 0.0 WNW 74 87 40 47 - - 11.8
30/05:53pm 2.8 -7.9 2.7 99 0.0 WNW 48 87 26 47 - - 11.8
30/05:31pm 2.9 -7.8 2.8 99 0.0 NW 48 67 26 36 - - 10.6
30/05:30pm 2.9 -8.1 2.8 99 0.0 NW 50 67 27 36 - - 10.6
30/05:00pm 2.9 -8.5 2.8 99 0.0 NW 52 74 28 40 - - 8.8
30/04:30pm 2.9 -9.8 2.8 99 0.0 WNW 59 80 32 43 - - 8.6
30/04:00pm 2.7 -10.1 2.6 99 0.0 WNW 59 80 32 43 - - 7.4
30/03:30pm 2.5 -10.3 2.4 99 0.0 NW 59 80 32 43 - - 7.2
30/03:00pm 2.2 -11.0 2.1 99 0.0 WNW 61 80 33 43 - - 6.8
30/02:32pm 2.0 -12.0 1.9 99 0.0 NW 65 83 35 45 - - 6.4
30/02:30pm 2.0 -11.7 1.9 99 0.0 NW 63 76 34 41 - - 6.4
30/02:00pm 1.5 -11.5 1.4 99 0.0 NW 59 76 32 41 - - 5.6
30/01:30pm 1.1 -11.9 1.0 99 0.0 NW 59 80 32 43 - - 4.6
30/01:09pm 1.8 -10.2 1.7 99 0.0 NW 54 74 29 40 - - 3.4
30/01:00pm 1.9 -11.0 1.8 99 0.0 NW 59 76 32 41 - - 3.0
30/12:30pm 1.9 -12.5 1.8 99 0.0 NW 67 85 36 46 - - 1.4
30/12:00pm 1.6 -13.8 1.5 99 0.0 NW 72 95 39 51 - - 1.0
30/11:30am 1.4 -13.5 1.1 98 0.1 NW 69 87 37 47 - - 1.0
30/11:00am 1.2 -13.4 0.9 98 0.1 NW 67 87 36 47 - - 0.8
30/10:31am 1.0 -14.0 0.7 98 0.1 NW 69 89 37 48 - - 0.6
30/10:30am 0.9 -14.1 0.6 98 0.1 NW 69 83 37 45 - - 0.4
30/10:00am 0.7 -15.3 0.4 98 0.1 NW 74 100 40 54 - - 0.2
30/09:30am 0.3 -15.4 0.0 98 0.1 NW 72 93 39 50 - - 0.0
30/09:00am 0.0 -15.3 -0.3 98 0.1 NW 70 98 38 53 - - 11.0
30/08:30am -0.3 -15.5 -0.6 98 0.1 NW 69 91 37 49 - - 11.0
30/08:03am -0.9 -15.4 -1.2 98 0.1 NW 65 85 35 46 - - 11.0
30/08:00am -0.9 -15.4 -1.2 98 0.1 NW 65 82 35 44 - - 11.0
30/07:30am -1.2 -17.1 -1.6 97 0.1 NW 72 95 39 51 - - 11.0
30/07:01am -0.6 -16.7 -3.0 84 0.8 WNW 72 93 39 50 - - 11.0
30/07:00am -0.6 -17.0 -3.0 84 0.8 WNW 74 93 40 50 - - 11.0
30/06:30am -1.4 -15.3 -2.8 90 0.4 WNW 61 83 33 45 - - 11.0
30/06:00am -0.8 -16.4 -3.8 80 1.0 WNW 69 93 37 50 - - 11.0
30/05:30am -0.8 -17.0 -3.8 80 1.0 W 72 120 39 65 - - 11.0
30/05:00am -0.8 -18.5 -3.8 80 1.0 W 80 119 43 64 - - 11.0
30/04:30am -0.9 -17.4 -3.3 84 0.8 W 74 106 40 57 - - 11.0
30/04:00am -1.1 -18.3 -3.3 85 0.7 W 78 106 42 57 - - 11.0
30/03:30am -1.2 -18.7 -2.5 91 0.4 W 80 109 43 59 - - 11.0
30/03:16am -1.0 -19.0 -1.6 96 0.2 W 83 102 45 55 - - 11.0
30/03:00am -1.2 -14.2 -1.6 97 0.1 W 57 85 31 46 - - 11.0
30/02:57am -1.2 -13.3 -1.6 97 0.1 W 52 78 28 42 - - 11.0
30/02:56am -1.3 -12.3 -1.7 97 0.1 W 46 61 25 33 - - 11.0
30/02:30am -1.3 -16.8 -1.7 97 0.1 W 70 102 38 55 - - 11.0
30/02:23am -1.2 -15.8 -1.6 97 0.1 W 65 102 35 55 - - 11.0
30/02:12am -1.1 -14.1 -1.5 97 0.1 W 57 76 31 41 - - 11.0
30/02:11am -1.1 -13.9 -1.5 97 0.1 W 56 69 30 37 - - 11.0
30/02:01am -0.8 -17.8 -1.4 96 0.2 W 78 122 42 66 - - 11.0
30/02:00am -0.9 -17.5 -1.5 96 0.2 W 76 104 41 56 - - 11.0
30/01:34am -0.9 -16.5 -2.6 88 0.6 W 70 89 38 48 - - 11.0
30/01:30am -0.9 -21.3 -2.8 87 0.6 W 95 150 51 81 - - 11.0
30/01:26am -0.8 -20.1 -3.0 85 0.8 W 89 150 48 81 - - 11.0
30/01:20am -1.2 -19.1 -2.6 90 0.5 W 82 111 44 60 - - 11.0
30/01:19am -1.2 -18.7 -2.6 90 0.5 W 80 95 43 51 - - 11.0
30/01:10am -1.0 -22.8 -2.9 87 0.6 W 102 132 55 71 - - 11.0
30/01:09am -1.2 -22.5 -2.6 90 0.5 W 100 117 54 63 - - 11.0
30/01:00am -1.4 -18.5 -2.2 94 0.2 WSW 78 126 42 68 - - 11.0
30/12:30am -1.0 -18.8 -1.6 96 0.2 W 82 119 44 64 - - 11.0
30/12:16am -1.0 -21.5 -2.1 92 0.4 W 96 119 52 64 - - 11.0
30/12:09am -1.2 -16.7 -1.6 97 0.1 W 70 111 38 60 - - 11.0
30/12:00am -1.2 -15.8 -1.6 97 0.1 WSW 65 83 35 45 - - 11.0
 
Date/Time
EST
Tmp

°C
App
Tmp
°C
Dew
Point
°C
Rel
Hum
%
Delta-T

°C
Wind Press
QNH
hPa
Press
MSL
hPa
Rain
since
9 am
mm
Dir
 
Spd
km/h
Gust
km/h
Spd
kts
Gust
kts
29/11:41pm -0.4 -16.8 -2.4 86 0.7 W 74 95 40 51 - - 11.0
29/11:40pm -0.4 -16.0 -2.4 86 0.7 W 70 87 38 47 - - 11.0
29/11:31pm -0.4 -20.4 -2.9 83 0.9 W 93 150 50 81 - - 10.8
29/11:30pm -0.4 -20.1 -2.9 83 0.9 W 91 128 49 69 - - 10.8
29/11:16pm -0.7 -19.4 -1.7 93 0.3 W 87 113 47 61 - - 10.8
29/11:14pm -0.8 -15.3 -1.4 96 0.2 W 65 111 35 60 - - 10.8
29/11:07pm -0.6 -13.4 -1.2 96 0.2 WSW 56 83 30 45 - - 10.8
29/11:00pm -0.1 -17.1 -1.5 90 0.5 W 78 128 42 69 - - 10.8
29/10:52pm 0.3 -18.5 -2.1 84 0.9 W 87 109 47 59 - - 10.8
29/10:33pm 0.3 -13.9 -1.8 86 0.8 W 63 102 34 55 - - 10.8
29/10:31pm 0.3 -13.5 -1.9 85 0.8 W 61 82 33 44 - - 10.8
29/10:30pm 0.3 -13.9 -1.9 85 0.8 W 63 82 34 44 - - 10.8
29/10:28pm 0.4 -14.2 -2.0 84 0.9 W 65 82 35 44 - - 10.8
29/10:00pm 0.5 -18.4 -2.5 80 1.1 W 87 133 47 72 - - 10.8
29/09:55pm 0.6 -17.3 -2.8 78 1.3 W 82 133 44 72 - - 10.8
29/09:49pm 0.5 -15.9 -2.7 79 1.2 W 74 111 40 60 - - 10.8
29/09:48pm 0.5 -15.0 -2.7 79 1.2 W 69 87 37 47 - - 10.8
29/09:30pm 0.8 -19.2 -2.6 78 1.3 W 93 135 50 73 - - 10.8
29/09:24pm 0.6 -17.5 -2.3 81 1.1 W 83 122 45 66 - - 10.8
29/09:21pm 0.4 -15.9 -1.7 86 0.8 W 74 98 40 53 - - 10.8
29/09:14pm 0.6 -20.6 -1.6 85 0.9 W 100 152 54 82 - - 10.8
29/09:05pm 0.8 -22.6 -2.2 80 1.2 W 111 133 60 72 - - 10.8
29/09:00pm 0.5 -17.8 -1.3 88 0.7 W 85 128 46 69 - - 10.8
29/08:30pm 0.2 -17.7 -0.9 92 0.4 W 83 120 45 65 - - 10.8
29/08:26pm 0.2 -17.7 -0.9 92 0.4 W 83 119 45 64 - - 10.8
29/08:20pm 0.3 -15.9 -0.8 92 0.4 W 74 98 40 53 - - 10.8
29/08:17pm 0.6 -21.7 -1.3 87 0.8 W 106 124 57 67 - - 10.8
29/08:00pm 0.8 -14.7 -1.3 86 0.8 WNW 70 107 38 58 - - 10.8
29/07:51pm 1.2 -14.7 -1.5 82 1.0 WNW 72 107 39 58 - - 10.8
29/07:46pm 1.1 -13.6 -0.2 91 0.5 WNW 67 87 36 47 - - 10.8
29/07:30pm 1.1 -17.8 -0.1 92 0.5 W 89 130 48 70 - - 10.8
29/07:19pm 0.8 -16.0 0.2 96 0.2 W 78 124 42 67 - - 10.8
29/07:18pm 0.8 -14.8 0.1 95 0.3 W 72 95 39 51 - - 10.8
29/07:08pm 1.0 -19.2 0.4 96 0.2 W 96 132 52 71 - - 10.8
29/07:00pm 0.7 -12.8 0.4 98 0.1 WNW 61 102 33 55 - - 10.6
29/06:42pm 0.5 -12.7 -0.1 96 0.2 WNW 59 83 32 45 - - 10.6
29/06:30pm 1.1 -17.0 0.1 93 0.4 W 85 126 46 68 - - 10.6
29/06:00pm 0.5 -18.4 0.1 97 0.2 W 89 128 48 69 - - 10.6
29/05:50pm 0.9 -18.3 0.6 98 0.1 W 91 137 49 74 - - 10.6
29/05:49pm 0.8 -16.7 0.7 99 0.0 W 82 98 44 53 - - 10.4
29/05:47pm 1.0 -11.5 0.9 99 0.0 W 56 91 30 49 - - 10.4
29/05:43pm 1.6 -9.7 1.5 99 0.0 W 50 67 27 36 - - 10.0
29/05:30pm 2.3 -10.0 2.2 99 0.0 WNW 56 80 30 43 - - 9.6
29/05:05pm 2.2 -11.8 2.1 99 0.0 WNW 65 95 35 51 - - 9.6
29/05:04pm 2.2 -11.0 2.1 99 0.0 WNW 61 80 33 43 - - 9.6
29/05:00pm 2.2 -16.0 2.1 99 0.0 WNW 87 122 47 66 - - 9.6
29/04:56pm 1.9 -18.8 1.8 99 0.0 WNW 100 122 54 66 - - 9.6
29/04:55pm 1.9 -12.9 1.8 99 0.0 WNW 69 122 37 66 - - 9.4
29/04:54pm 2.0 -12.0 1.9 99 0.0 WNW 65 104 35 56 - - 9.4
29/04:48pm 2.2 -11.0 2.1 99 0.0 WNW 61 83 33 45 - - 9.0
29/04:34pm 2.5 -7.5 2.4 99 0.0 NNW 44 65 24 35 - - 7.6
29/04:30pm 2.5 -8.2 2.4 99 0.0 NW 48 65 26 35 - - 7.2
29/04:03pm 2.3 -8.5 2.2 99 0.0 NNW 48 67 26 36 - - 6.2
29/04:00pm 2.3 -8.8 2.2 99 0.0 NW 50 67 27 36 - - 6.0
29/03:30pm 2.0 -10.5 1.9 99 0.0 NNW 57 82 31 44 - - 4.8
29/03:01pm 1.4 -12.0 1.3 99 0.0 NW 61 83 33 45 - - 3.8
29/03:00pm 1.3 -11.7 1.2 99 0.0 NW 59 78 32 42 - - 3.8
29/02:30pm 1.0 -13.6 0.9 99 0.0 NW 67 87 36 47 - - 3.0
29/02:00pm 0.4 -16.0 0.1 98 0.1 NW 76 96 41 52 - - 2.8
29/01:30pm 0.3 -15.7 0.0 98 0.1 NW 74 95 40 51 - - 2.8
29/01:00pm 0.0 -14.4 -0.3 98 0.1 NW 65 85 35 46 - - 2.8
29/12:41pm 0.0 -12.9 -0.3 98 0.1 NW 57 80 31 43 - - 2.8
29/12:36pm 0.0 -12.3 -0.3 98 0.1 NW 54 70 29 38 - - 2.8
29/12:30pm -0.1 -16.2 -0.4 98 0.1 NW 74 95 40 51 - - 2.8
29/12:00pm 0.0 -14.8 -0.3 98 0.1 WNW 67 91 36 49 - - 2.6
29/11:32am 0.1 -12.7 -0.2 98 0.1 WNW 57 78 31 42 - - 2.4
29/11:30am 0.1 -13.1 -0.2 98 0.1 WNW 59 78 32 42 - - 2.2
29/11:07am 0.4 -13.2 0.1 98 0.1 WNW 61 80 33 43 - - 2.0
29/11:00am 0.6 -12.2 0.2 97 0.2 WNW 57 74 31 40 - - 1.8
29/10:30am 1.7 -13.5 0.5 92 0.5 WNW 70 91 38 49 - - 1.6
29/10:06am 2.1 -12.7 1.7 97 0.2 WNW 69 95 37 51 - - 1.6
29/10:00am 2.3 -13.1 2.0 98 0.1 WNW 72 87 39 47 - - 1.6
29/09:56am 2.3 -14.2 2.2 99 0.0 WNW 78 87 42 47 - - 1.6
29/09:53am 2.1 -9.5 2.0 99 0.0 WNW 52 80 28 43 - - 1.6
29/09:35am 2.5 -6.1 2.4 99 0.0 WNW 37 57 20 31 - - 1.4
29/09:30am 2.9 -5.3 2.8 99 0.0 WNW 35 44 19 24 - - 1.2
29/09:00am 2.9 -8.9 2.8 99 0.0 NW 54 80 29 43 - - 5.8
29/08:30am 2.8 -9.0 2.7 99 0.0 NW 54 74 29 40 - - 5.0
29/08:00am 2.6 -9.6 2.5 99 0.0 NNW 56 76 30 41 - - 5.0
29/07:57am 2.7 -9.5 2.6 99 0.0 NNW 56 76 30 41 - - 5.0
29/07:30am 2.2 -9.7 2.1 99 0.0 NNW 54 69 29 37 - - 4.0
29/07:00am 1.9 -11.8 1.8 99 0.0 NNW 63 83 34 45 - - 2.4
29/06:30am 2.1 -13.3 2.0 99 0.0 NNW 72 93 39 50 - - 0.6
29/06:00am 1.9 -14.2 1.8 99 0.0 NNW 76 98 41 53 - - 0.6
29/05:30am 2.3 -13.8 2.2 99 0.0 NNW 76 98 41 53 - - 0.4
29/05:00am 2.2 -15.0 2.1 99 0.0 NNW 82 102 44 55 - - 0.4
29/04:30am 2.1 -14.4 1.8 98 0.1 NW 78 96 42 52 - - 0.4
29/04:22am 2.1 -14.0 1.8 98 0.1 NW 76 96 41 52 - - 0.4
29/04:00am 2.0 -14.9 1.7 98 0.1 NW 80 96 43 52 - - 0.4
29/03:33am 2.1 -14.0 1.8 98 0.1 NW 76 96 41 52 - - 0.4
29/03:30am 2.1 -14.4 1.8 98 0.1 NW 78 96 42 52 - - 0.4
29/03:00am 2.1 -15.2 1.8 98 0.1 NW 82 102 44 55 - - 0.4
29/02:30am 2.1 -14.4 1.8 98 0.1 NW 78 102 42 55 - - 0.4
29/02:00am 2.0 -13.0 1.7 98 0.1 NW 70 91 38 49 - - 0.2
29/01:31am 1.8 -13.6 1.5 98 0.1 NW 72 91 39 49 - - 0.2
29/01:30am 1.8 -14.0 1.5 98 0.1 NW 74 91 40 49 - - 0.2

Latest Capital City Observations: Canberra | Sydney | Melbourne | Brisbane | Adelaide | Perth | Hobart | Darwin

Other Formats:

Comma delimited format used in spreadsheet applications
http://www.bom.gov.au/fwo/IDT60901/IDT60901.95979.axf

JavaScript Object Notation format (JSON) in row-major order
http://www.bom.gov.au/fwo/IDT60901/IDT60901.95979.json